sensor_id;sensor_type;location;lat;lon;timestamp;pressure;altitude;pressure_sealevel;temperature;humidity
11448;BME280;43755;49.736;8.734;2023-05-07T00:00:42;97810.94;;;12.81;100.00
11448;BME280;43755;49.736;8.734;2023-05-07T00:02:43;97812.66;;;12.82;100.00
11448;BME280;43755;49.736;8.734;2023-05-07T00:04:45;97816.25;;;12.81;100.00
11448;BME280;43755;49.736;8.734;2023-05-07T00:06:48;97814.53;;;12.80;100.00
11448;BME280;43755;49.736;8.734;2023-05-07T00:08:49;97809.16;;;12.81;100.00
11448;BME280;43755;49.736;8.734;2023-05-07T00:10:51;97812.75;;;12.80;100.00
11448;BME280;43755;49.736;8.734;2023-05-07T00:12:52;97815.47;;;12.79;100.00
11448;BME280;43755;49.736;8.734;2023-05-07T00:14:54;97817.31;;;12.78;100.00
11448;BME280;43755;49.736;8.734;2023-05-07T00:16:55;97812.22;;;12.73;100.00
11448;BME280;43755;49.736;8.734;2023-05-07T00:18:57;97804.44;;;12.70;100.00
11448;BME280;43755;49.736;8.734;2023-05-07T00:20:58;97807.84;;;12.72;100.00
11448;BME280;43755;49.736;8.734;2023-05-07T00:23:01;97804.38;;;12.72;100.00
11448;BME280;43755;49.736;8.734;2023-05-07T00:25:03;97801.78;;;12.70;100.00
11448;BME280;43755;49.736;8.734;2023-05-07T00:27:05;97811.53;;;12.70;100.00
11448;BME280;43755;49.736;8.734;2023-05-07T00:29:06;97802.78;;;12.68;100.00
11448;BME280;43755;49.736;8.734;2023-05-07T00:31:08;97805.44;;;12.68;100.00
11448;BME280;43755;49.736;8.734;2023-05-07T00:33:09;97811.63;;;12.68;100.00
11448;BME280;43755;49.736;8.734;2023-05-07T00:35:10;97812.66;;;12.66;100.00
11448;BME280;43755;49.736;8.734;2023-05-07T00:37:12;97805.63;;;12.65;100.00
11448;BME280;43755;49.736;8.734;2023-05-07T00:39:15;97800.56;;;12.60;100.00
11448;BME280;43755;49.736;8.734;2023-05-07T00:41:16;97802.69;;;12.54;100.00
11448;BME280;43755;49.736;8.734;2023-05-07T00:43:17;97801.13;;;12.50;100.00
11448;BME280;43755;49.736;8.734;2023-05-07T00:45:19;97805.69;;;12.48;100.00
11448;BME280;43755;49.736;8.734;2023-05-07T00:47:20;97814.72;;;12.44;100.00
11448;BME280;43755;49.736;8.734;2023-05-07T00:49:22;97802.50;;;12.41;100.00
11448;BME280;43755;49.736;8.734;2023-05-07T00:51:25;97797.19;;;12.41;100.00
11448;BME280;43755;49.736;8.734;2023-05-07T00:53:28;97795.41;;;12.42;100.00
11448;BME280;43755;49.736;8.734;2023-05-07T00:55:30;97803.97;;;12.47;100.00
11448;BME280;43755;49.736;8.734;2023-05-07T00:57:33;97801.06;;;12.51;100.00
11448;BME280;43755;49.736;8.734;2023-05-07T00:59:37;97798.72;;;12.45;100.00
11448;BME280;43755;49.736;8.734;2023-05-07T01:01:39;97793.41;;;12.45;100.00
11448;BME280;43755;49.736;8.734;2023-05-07T01:03:41;97788.19;;;12.44;100.00
11448;BME280;43755;49.736;8.734;2023-05-07T01:05:42;97788.19;;;12.44;100.00
11448;BME280;43755;49.736;8.734;2023-05-07T01:07:45;97781.09;;;12.44;100.00
11448;BME280;43755;49.736;8.734;2023-05-07T01:09:47;97784.44;;;12.48;100.00
11448;BME280;43755;49.736;8.734;2023-05-07T01:11:50;97781.81;;;12.48;100.00
11448;BME280;43755;49.736;8.734;2023-05-07T01:13:53;97786.06;;;12.50;100.00
11448;BME280;43755;49.736;8.734;2023-05-07T01:15:54;97787.78;;;12.51;100.00
11448;BME280;43755;49.736;8.734;2023-05-07T01:17:55;97785.91;;;12.53;100.00
11448;BME280;43755;49.736;8.734;2023-05-07T01:19:57;97784.13;;;12.54;100.00
11448;BME280;43755;49.736;8.734;2023-05-07T01:22:03;97790.28;;;12.54;100.00
11448;BME280;43755;49.736;8.734;2023-05-07T01:24:09;97776.31;;;12.51;100.00
11448;BME280;43755;49.736;8.734;2023-05-07T01:26:11;97782.56;;;12.50;100.00
11448;BME280;43755;49.736;8.734;2023-05-07T01:28:13;97772.72;;;12.52;100.00
11448;BME280;43755;49.736;8.734;2023-05-07T01:30:15;97763.97;;;12.50;100.00
11448;BME280;43755;49.736;8.734;2023-05-07T01:32:20;97764.91;;;12.49;100.00
11448;BME280;43755;49.736;8.734;2023-05-07T01:34:24;97767.69;;;12.47;100.00
11448;BME280;43755;49.736;8.734;2023-05-07T01:36:27;97768.88;;;12.42;100.00
11448;BME280;43755;49.736;8.734;2023-05-07T01:38:30;97778.00;;;12.36;100.00
11448;BME280;43755;49.736;8.734;2023-05-07T01:40:34;97774.56;;;12.34;100.00
11448;BME280;43755;49.736;8.734;2023-05-07T01:42:35;97771.31;;;12.29;100.00
11448;BME280;43755;49.736;8.734;2023-05-07T01:44:37;97775.91;;;12.25;100.00
11448;BME280;43755;49.736;8.734;2023-05-07T01:46:38;97776.88;;;12.24;100.00
11448;BME280;43755;49.736;8.734;2023-05-07T01:48:40;97770.69;;;12.24;100.00
11448;BME280;43755;49.736;8.734;2023-05-07T01:50:46;97777.19;;;12.18;100.00
11448;BME280;43755;49.736;8.734;2023-05-07T01:52:50;97770.84;;;12.21;100.00
11448;BME280;43755;49.736;8.734;2023-05-07T01:54:51;97771.72;;;12.21;100.00
11448;BME280;43755;49.736;8.734;2023-05-07T01:56:55;97768.38;;;12.18;100.00
11448;BME280;43755;49.736;8.734;2023-05-07T01:58:57;97762.97;;;12.19;100.00
11448;BME280;43755;49.736;8.734;2023-05-07T02:00:58;97764.78;;;12.19;100.00
11448;BME280;43755;49.736;8.734;2023-05-07T02:03:00;97773.53;;;12.04;100.00
11448;BME280;43755;49.736;8.734;2023-05-07T02:05:01;97759.97;;;11.93;100.00
11448;BME280;43755;49.736;8.734;2023-05-07T02:07:03;97768.00;;;11.91;100.00
11448;BME280;43755;49.736;8.734;2023-05-07T02:09:04;97775.88;;;11.93;100.00
11448;BME280;43755;49.736;8.734;2023-05-07T02:11:05;97772.38;;;11.92;100.00
11448;BME280;43755;49.736;8.734;2023-05-07T02:13:09;97777.84;;;11.89;100.00
11448;BME280;43755;49.736;8.734;2023-05-07T02:15:11;97772.88;;;11.83;100.00
11448;BME280;43755;49.736;8.734;2023-05-07T02:17:12;97779.09;;;11.82;100.00
11448;BME280;43755;49.736;8.734;2023-05-07T02:19:13;97770.41;;;11.78;100.00
11448;BME280;43755;49.736;8.734;2023-05-07T02:21:15;97779.47;;;11.74;100.00
11448;BME280;43755;49.736;8.734;2023-05-07T02:23:16;97776.16;;;11.69;100.00
11448;BME280;43755;49.736;8.734;2023-05-07T02:25:18;97773.84;;;11.63;100.00
11448;BME280;43755;49.736;8.734;2023-05-07T02:27:19;97768.16;;;11.54;100.00
11448;BME280;43755;49.736;8.734;2023-05-07T02:29:22;97771.31;;;11.43;100.00
11448;BME280;43755;49.736;8.734;2023-05-07T02:31:23;97767.19;;;11.37;100.00
11448;BME280;43755;49.736;8.734;2023-05-07T02:33:25;97775.34;;;11.33;100.00
11448;BME280;43755;49.736;8.734;2023-05-07T02:35:26;97771.22;;;11.27;100.00
11448;BME280;43755;49.736;8.734;2023-05-07T02:37:28;97771.38;;;11.24;100.00
11448;BME280;43755;49.736;8.734;2023-05-07T02:39:29;97772.63;;;11.17;100.00
11448;BME280;43755;49.736;8.734;2023-05-07T02:41:31;97779.94;;;11.12;100.00
11448;BME280;43755;49.736;8.734;2023-05-07T02:43:32;97778.56;;;11.03;100.00
11448;BME280;43755;49.736;8.734;2023-05-07T02:45:35;97783.56;;;11.09;100.00
11448;BME280;43755;49.736;8.734;2023-05-07T02:47:37;97782.63;;;11.11;100.00
11448;BME280;43755;49.736;8.734;2023-05-07T02:49:38;97786.06;;;11.13;100.00
11448;BME280;43755;49.736;8.734;2023-05-07T02:51:40;97779.00;;;11.13;100.00
11448;BME280;43755;49.736;8.734;2023-05-07T02:53:41;97778.22;;;11.11;100.00
11448;BME280;43755;49.736;8.734;2023-05-07T02:55:43;97780.63;;;11.16;100.00
11448;BME280;43755;49.736;8.734;2023-05-07T02:57:45;97778.66;;;11.19;100.00
11448;BME280;43755;49.736;8.734;2023-05-07T02:59:46;97780.25;;;11.23;100.00
11448;BME280;43755;49.736;8.734;2023-05-07T03:01:49;97780.88;;;11.28;100.00
11448;BME280;43755;49.736;8.734;2023-05-07T03:03:50;97780.72;;;11.31;100.00
11448;BME280;43755;49.736;8.734;2023-05-07T03:05:52;97783.47;;;11.30;100.00
11448;BME280;43755;49.736;8.734;2023-05-07T03:07:53;97774.78;;;11.26;100.00
11448;BME280;43755;49.736;8.734;2023-05-07T03:09:54;97772.16;;;11.26;100.00
11448;BME280;43755;49.736;8.734;2023-05-07T03:11:56;97772.16;;;11.26;100.00
11448;BME280;43755;49.736;8.734;2023-05-07T03:13:58;97779.34;;;11.24;100.00
11448;BME280;43755;49.736;8.734;2023-05-07T03:15:59;97779.47;;;11.21;100.00
11448;BME280;43755;49.736;8.734;2023-05-07T03:18:02;97781.41;;;11.18;100.00
11448;BME280;43755;49.736;8.734;2023-05-07T03:20:04;97772.63;;;11.17;100.00
11448;BME280;43755;49.736;8.734;2023-05-07T03:22:06;97771.81;;;11.15;100.00
11448;BME280;43755;49.736;8.734;2023-05-07T03:24:07;97770.97;;;11.15;100.00
11448;BME280;43755;49.736;8.734;2023-05-07T03:26:09;97769.91;;;11.19;100.00
11448;BME280;43755;49.736;8.734;2023-05-07T03:28:10;97763.75;;;11.18;100.00
11448;BME280;43755;49.736;8.734;2023-05-07T03:30:12;97761.00;;;11.20;100.00
11448;BME280;43755;49.736;8.734;2023-05-07T03:32:13;97755.69;;;11.20;100.00
11448;BME280;43755;49.736;8.734;2023-05-07T03:34:16;97760.78;;;11.24;100.00
11448;BME280;43755;49.736;8.734;2023-05-07T03:36:22;97757.97;;;11.27;100.00
11448;BME280;43755;49.736;8.734;2023-05-07T03:38:24;97749.47;;;11.21;100.00
11448;BME280;43755;49.736;8.734;2023-05-07T03:40:25;97760.06;;;11.21;100.00
11448;BME280;43755;49.736;8.734;2023-05-07T03:42:28;97747.94;;;11.17;100.00
11448;BME280;43755;49.736;8.734;2023-05-07T03:44:29;97750.69;;;11.14;100.00
11448;BME280;43755;49.736;8.734;2023-05-07T03:46:31;97752.03;;;11.05;100.00
11448;BME280;43755;49.736;8.734;2023-05-07T03:48:33;97750.00;;;11.10;100.00
11448;BME280;43755;49.736;8.734;2023-05-07T03:50:35;97751.66;;;11.13;100.00
11448;BME280;43755;49.736;8.734;2023-05-07T03:52:37;97753.50;;;11.11;100.00
11448;BME280;43755;49.736;8.734;2023-05-07T03:54:38;97748.34;;;11.07;100.00
11448;BME280;43755;49.736;8.734;2023-05-07T03:56:40;97738.50;;;11.11;100.00
11448;BME280;43755;49.736;8.734;2023-05-07T03:58:41;97746.50;;;11.09;100.00
11448;BME280;43755;49.736;8.734;2023-05-07T04:00:42;97746.66;;;11.06;100.00
11448;BME280;43755;49.736;8.734;2023-05-07T04:02:44;97748.34;;;11.07;100.00
11448;BME280;43755;49.736;8.734;2023-05-07T04:04:45;97749.38;;;11.05;100.00
11448;BME280;43755;49.736;8.734;2023-05-07T04:06:48;97758.25;;;11.04;100.00
11448;BME280;43755;49.736;8.734;2023-05-07T04:08:49;97758.53;;;10.98;100.00
11448;BME280;43755;49.736;8.734;2023-05-07T04:10:54;97760.19;;;11.00;100.00
11448;BME280;43755;49.736;8.734;2023-05-07T04:12:56;97765.69;;;10.96;100.00
11448;BME280;43755;49.736;8.734;2023-05-07T04:14:57;97770.00;;;10.98;100.00
11448;BME280;43755;49.736;8.734;2023-05-07T04:16:59;97771.66;;;11.01;100.00
11448;BME280;43755;49.736;8.734;2023-05-07T04:19:00;97764.34;;;11.06;100.00
11448;BME280;43755;49.736;8.734;2023-05-07T04:21:02;97780.91;;;11.09;100.00
11448;BME280;43755;49.736;8.734;2023-05-07T04:23:05;97778.28;;;11.09;100.00
11448;BME280;43755;49.736;8.734;2023-05-07T04:25:08;97774.13;;;11.04;100.00
11448;BME280;43755;49.736;8.734;2023-05-07T04:27:10;97775.50;;;11.13;100.00
11448;BME280;43755;49.736;8.734;2023-05-07T04:29:12;97771.13;;;11.12;100.00
11448;BME280;43755;49.736;8.734;2023-05-07T04:31:13;97770.66;;;11.21;100.00
11448;BME280;43755;49.736;8.734;2023-05-07T04:33:15;97775.03;;;11.22;100.00
11448;BME280;43755;49.736;8.734;2023-05-07T04:35:17;97779.09;;;11.29;100.00
11448;BME280;43755;49.736;8.734;2023-05-07T04:37:18;97776.16;;;11.35;100.00
11448;BME280;43755;49.736;8.734;2023-05-07T04:39:21;97773.25;;;11.39;100.00
11448;BME280;43755;49.736;8.734;2023-05-07T04:41:22;97772.91;;;11.47;100.00
11448;BME280;43755;49.736;8.734;2023-05-07T04:43:24;97777.47;;;11.43;100.00
11448;BME280;43755;49.736;8.734;2023-05-07T04:45:25;97775.25;;;11.53;100.00
11448;BME280;43755;49.736;8.734;2023-05-07T04:47:27;97774.13;;;11.57;100.00
11448;BME280;43755;49.736;8.734;2023-05-07T04:49:28;97771.97;;;11.65;100.00
11448;BME280;43755;49.736;8.734;2023-05-07T04:51:29;97780.25;;;11.76;100.00
11448;BME280;43755;49.736;8.734;2023-05-07T04:53:32;97785.25;;;11.82;100.00
11448;BME280;43755;49.736;8.734;2023-05-07T04:55:35;97779.63;;;11.88;100.00
11448;BME280;43755;49.736;8.734;2023-05-07T04:57:36;97787.09;;;11.98;100.00
11448;BME280;43755;49.736;8.734;2023-05-07T04:59:39;97786.97;;;12.01;100.00
11448;BME280;43755;49.736;8.734;2023-05-07T05:01:41;97786.47;;;12.10;100.00
11448;BME280;43755;49.736;8.734;2023-05-07T05:03:42;97786.41;;;12.11;100.00
11448;BME280;43755;49.736;8.734;2023-05-07T05:05:43;97788.66;;;12.19;100.00
11448;BME280;43755;49.736;8.734;2023-05-07T05:07:45;97775.16;;;12.23;100.00
11448;BME280;43755;49.736;8.734;2023-05-07T05:09:46;97789.69;;;12.32;100.00
11448;BME280;43755;49.736;8.734;2023-05-07T05:11:49;97788.38;;;12.41;100.00
11448;BME280;43755;49.736;8.734;2023-05-07T05:13:50;97795.06;;;12.48;100.00
11448;BME280;43755;49.736;8.734;2023-05-07T05:15:52;97790.09;;;12.57;100.00
11448;BME280;43755;49.736;8.734;2023-05-07T05:17:53;97795.09;;;12.63;100.00
11448;BME280;43755;49.736;8.734;2023-05-07T05:19:54;97785.06;;;12.68;100.00
11448;BME280;43755;49.736;8.734;2023-05-07T05:21:56;97791.69;;;12.77;100.00
11448;BME280;43755;49.736;8.734;2023-05-07T05:23:58;97785.88;;;12.86;100.00
11448;BME280;43755;49.736;8.734;2023-05-07T05:25:59;97793.34;;;12.95;100.00
11448;BME280;43755;49.736;8.734;2023-05-07T05:28:02;97791.53;;;12.96;100.00
11448;BME280;43755;49.736;8.734;2023-05-07T05:30:04;97792.56;;;12.93;100.00
11448;BME280;43755;49.736;8.734;2023-05-07T05:32:06;97799.25;;;13.00;100.00
11448;BME280;43755;49.736;8.734;2023-05-07T05:34:07;97800.38;;;13.12;100.00
11448;BME280;43755;49.736;8.734;2023-05-07T05:36:09;97801.50;;;13.24;100.00
11448;BME280;43755;49.736;8.734;2023-05-07T05:38:12;97800.97;;;13.33;100.00
11448;BME280;43755;49.736;8.734;2023-05-07T05:40:13;97799.59;;;13.41;100.00
11448;BME280;43755;49.736;8.734;2023-05-07T05:42:14;97800.19;;;13.46;100.00
11448;BME280;43755;49.736;8.734;2023-05-07T05:44:17;97795.38;;;13.53;100.00
11448;BME280;43755;49.736;8.734;2023-05-07T05:46:18;97798.69;;;13.57;100.00
11448;BME280;43755;49.736;8.734;2023-05-07T05:48:20;97799.63;;;13.56;100.00
11448;BME280;43755;49.736;8.734;2023-05-07T05:50:21;97794.56;;;13.67;100.00
11448;BME280;43755;49.736;8.734;2023-05-07T05:52:23;97798.53;;;13.60;100.00
11448;BME280;43755;49.736;8.734;2023-05-07T05:54:25;97807.69;;;13.70;100.00
11448;BME280;43755;49.736;8.734;2023-05-07T05:56:26;97807.69;;;13.70;100.00
11448;BME280;43755;49.736;8.734;2023-05-07T05:58:28;97806.75;;;13.71;100.00
11448;BME280;43755;49.736;8.734;2023-05-07T06:00:31;97813.50;;;13.76;100.00
11448;BME280;43755;49.736;8.734;2023-05-07T06:02:33;97808.31;;;13.89;100.00
11448;BME280;43755;49.736;8.734;2023-05-07T06:04:34;97810.50;;;13.97;100.00
11448;BME280;43755;49.736;8.734;2023-05-07T06:06:36;97819.53;;;13.94;100.00
11448;BME280;43755;49.736;8.734;2023-05-07T06:08:37;97812.81;;;14.03;100.00
11448;BME280;43755;49.736;8.734;2023-05-07T06:10:38;97818.97;;;14.03;100.00
11448;BME280;43755;49.736;8.734;2023-05-07T06:12:40;97809.03;;;14.07;100.00
11448;BME280;43755;49.736;8.734;2023-05-07T06:14:42;97813.78;;;14.02;100.00
11448;BME280;43755;49.736;8.734;2023-05-07T06:16:45;97816.16;;;14.20;100.00
11448;BME280;43755;49.736;8.734;2023-05-07T06:18:46;97809.53;;;14.27;100.00
11448;BME280;43755;49.736;8.734;2023-05-07T06:20:48;97808.91;;;14.38;100.00
11448;BME280;43755;49.736;8.734;2023-05-07T06:22:49;97807.13;;;14.53;100.00
11448;BME280;43755;49.736;8.734;2023-05-07T06:24:50;97808.19;;;14.64;100.00
11448;BME280;43755;49.736;8.734;2023-05-07T06:26:52;97811.31;;;14.71;100.00
11448;BME280;43755;49.736;8.734;2023-05-07T06:28:53;97811.50;;;14.68;100.00
11448;BME280;43755;49.736;8.734;2023-05-07T06:30:55;97815.59;;;14.73;100.00
11448;BME280;43755;49.736;8.734;2023-05-07T06:32:57;97820.16;;;14.71;100.00
11448;BME280;43755;49.736;8.734;2023-05-07T06:34:59;97818.16;;;14.61;100.00
11448;BME280;43755;49.736;8.734;2023-05-07T06:37:00;97819.69;;;14.65;100.00
11448;BME280;43755;49.736;8.734;2023-05-07T06:39:02;97817.19;;;14.62;100.00
11448;BME280;43755;49.736;8.734;2023-05-07T06:41:06;97819.47;;;14.68;100.00
11448;BME280;43755;49.736;8.734;2023-05-07T06:43:07;97822.16;;;14.68;100.00
11448;BME280;43755;49.736;8.734;2023-05-07T06:45:10;97816.44;;;14.88;100.00
11448;BME280;43755;49.736;8.734;2023-05-07T06:47:11;97826.31;;;15.00;100.00
11448;BME280;43755;49.736;8.734;2023-05-07T06:49:14;97825.56;;;15.12;100.00
11448;BME280;43755;49.736;8.734;2023-05-07T06:51:16;97831.13;;;15.22;100.00
11448;BME280;43755;49.736;8.734;2023-05-07T06:53:17;97830.28;;;15.22;100.00
11448;BME280;43755;49.736;8.734;2023-05-07T06:55:19;97829.97;;;15.26;100.00
11448;BME280;43755;49.736;8.734;2023-05-07T06:57:20;97825.22;;;15.31;100.00
11448;BME280;43755;49.736;8.734;2023-05-07T06:59:22;97836.22;;;15.39;100.00
11448;BME280;43755;49.736;8.734;2023-05-07T07:01:24;97835.38;;;15.53;100.00
11448;BME280;43755;49.736;8.734;2023-05-07T07:03:25;97834.13;;;15.59;100.00
11448;BME280;43755;49.736;8.734;2023-05-07T07:05:28;97835.16;;;15.56;100.00
11448;BME280;43755;49.736;8.734;2023-05-07T07:07:30;97834.53;;;15.52;100.00
11448;BME280;43755;49.736;8.734;2023-05-07T07:09:31;97831.38;;;15.60;100.00
11448;BME280;43755;49.736;8.734;2023-05-07T07:11:32;97827.59;;;15.77;100.00
11448;BME280;43755;49.736;8.734;2023-05-07T07:13:34;97832.28;;;15.86;100.00
11448;BME280;43755;49.736;8.734;2023-05-07T07:15:35;97831.97;;;15.90;100.00
11448;BME280;43755;49.736;8.734;2023-05-07T07:17:37;97836.72;;;16.00;100.00
11448;BME280;43755;49.736;8.734;2023-05-07T07:19:38;97841.13;;;16.13;100.00
11448;BME280;43755;49.736;8.734;2023-05-07T07:21:41;97840.91;;;16.16;100.00
11448;BME280;43755;49.736;8.734;2023-05-07T07:23:42;97835.16;;;16.22;100.00
11448;BME280;43755;49.736;8.734;2023-05-07T07:25:44;97845.81;;;16.10;100.00
11448;BME280;43755;49.736;8.734;2023-05-07T07:27:45;97851.50;;;16.18;100.00
11448;BME280;43755;49.736;8.734;2023-05-07T07:29:46;97847.31;;;16.14;100.00
11448;BME280;43755;49.736;8.734;2023-05-07T07:31:48;97843.25;;;16.21;100.00
11448;BME280;43755;49.736;8.734;2023-05-07T07:33:50;97848.69;;;16.07;100.00
11448;BME280;43755;49.736;8.734;2023-05-07T07:35:51;97842.22;;;16.23;100.00
11448;BME280;43755;49.736;8.734;2023-05-07T07:37:54;97843.34;;;16.07;100.00
11448;BME280;43755;49.736;8.734;2023-05-07T07:39:55;97843.00;;;15.98;100.00
11448;BME280;43755;49.736;8.734;2023-05-07T07:41:57;97840.56;;;16.08;100.00
11448;BME280;43755;49.736;8.734;2023-05-07T07:43:58;97845.94;;;16.21;100.00
11448;BME280;43755;49.736;8.734;2023-05-07T07:45:59;97845.19;;;16.19;100.00
11448;BME280;43755;49.736;8.734;2023-05-07T07:48:01;97850.44;;;16.33;100.00
11448;BME280;43755;49.736;8.734;2023-05-07T07:50:02;97851.75;;;16.40;100.00
11448;BME280;43755;49.736;8.734;2023-05-07T07:52:04;97853.97;;;16.33;100.00
11448;BME280;43755;49.736;8.734;2023-05-07T07:54:07;97860.38;;;16.31;100.00
11448;BME280;43755;49.736;8.734;2023-05-07T07:56:08;97856.22;;;16.39;100.00
11448;BME280;43755;49.736;8.734;2023-05-07T07:58:09;97863.81;;;16.46;100.00
11448;BME280;43755;49.736;8.734;2023-05-07T08:00:12;97855.78;;;16.46;100.00
11448;BME280;43755;49.736;8.734;2023-05-07T08:02:13;97853.97;;;16.33;100.00
11448;BME280;43755;49.736;8.734;2023-05-07T08:04:15;97857.28;;;16.50;100.00
11448;BME280;43755;49.736;8.734;2023-05-07T08:06:16;97865.34;;;16.62;100.00
11448;BME280;43755;49.736;8.734;2023-05-07T08:08:18;97862.22;;;16.56;100.00
11448;BME280;43755;49.736;8.734;2023-05-07T08:10:21;97862.00;;;16.59;100.00
11448;BME280;43755;49.736;8.734;2023-05-07T08:12:23;97863.63;;;16.49;100.00
11448;BME280;43755;49.736;8.734;2023-05-07T08:14:24;97863.28;;;16.53;100.00
11448;BME280;43755;49.736;8.734;2023-05-07T08:16:25;97872.78;;;16.45;100.00
11448;BME280;43755;49.736;8.734;2023-05-07T08:18:28;97878.56;;;16.51;100.00
11448;BME280;43755;49.736;8.734;2023-05-07T08:20:29;97859.91;;;16.64;100.00
11448;BME280;43755;49.736;8.734;2023-05-07T08:22:31;97867.78;;;16.91;100.00
11448;BME280;43755;49.736;8.734;2023-05-07T08:24:32;97861.91;;;17.11;100.00
11448;BME280;43755;49.736;8.734;2023-05-07T08:26:35;97869.59;;;17.15;100.00
11448;BME280;43755;49.736;8.734;2023-05-07T08:28:39;97866.19;;;17.13;100.00
11448;BME280;43755;49.736;8.734;2023-05-07T08:30:40;97868.56;;;16.93;100.00
11448;BME280;43755;49.736;8.734;2023-05-07T08:32:42;97864.59;;;16.98;100.00
11448;BME280;43755;49.736;8.734;2023-05-07T08:34:43;97868.34;;;16.83;100.00
11448;BME280;43755;49.736;8.734;2023-05-07T08:36:44;97871.75;;;16.98;100.00
11448;BME280;43755;49.736;8.734;2023-05-07T08:38:48;97864.16;;;17.17;100.00
11448;BME280;43755;49.736;8.734;2023-05-07T08:40:49;97875.78;;;17.16;100.00
11448;BME280;43755;49.736;8.734;2023-05-07T08:42:53;97868.00;;;17.26;100.00
11448;BME280;43755;49.736;8.734;2023-05-07T08:44:57;97873.66;;;17.08;100.00
11448;BME280;43755;49.736;8.734;2023-05-07T08:47:00;97870.25;;;17.19;100.00
11448;BME280;43755;49.736;8.734;2023-05-07T08:49:02;97878.19;;;16.95;100.00
11448;BME280;43755;49.736;8.734;2023-05-07T08:51:05;97868.88;;;17.13;100.00
11448;BME280;43755;49.736;8.734;2023-05-07T08:53:06;97871.66;;;17.12;100.00
11448;BME280;43755;49.736;8.734;2023-05-07T08:55:09;97875.09;;;17.38;100.00
11448;BME280;43755;49.736;8.734;2023-05-07T08:57:10;97866.25;;;17.37;100.00
11448;BME280;43755;49.736;8.734;2023-05-07T08:59:13;97873.84;;;17.43;100.00
11448;BME280;43755;49.736;8.734;2023-05-07T09:01:16;97873.25;;;17.51;100.00
11448;BME280;43755;49.736;8.734;2023-05-07T09:03:18;97873.13;;;17.78;100.00
11448;BME280;43755;49.736;8.734;2023-05-07T09:05:19;97873.50;;;17.61;100.00
11448;BME280;43755;49.736;8.734;2023-05-07T09:07:21;97878.53;;;17.89;100.00
11448;BME280;43755;49.736;8.734;2023-05-07T09:09:23;97873.88;;;17.91;100.00
11448;BME280;43755;49.736;8.734;2023-05-07T09:11:25;97874.06;;;18.24;100.00
11448;BME280;43755;49.736;8.734;2023-05-07T09:13:27;97882.34;;;18.32;100.00
11448;BME280;43755;49.736;8.734;2023-05-07T09:15:29;97876.94;;;18.21;100.00
11448;BME280;43755;49.736;8.734;2023-05-07T09:17:31;97883.56;;;18.28;100.00
11448;BME280;43755;49.736;8.734;2023-05-07T09:19:32;97883.84;;;18.36;100.00
11448;BME280;43755;49.736;8.734;2023-05-07T09:21:35;97880.31;;;18.36;100.00
11448;BME280;43755;49.736;8.734;2023-05-07T09:23:36;97882.44;;;18.20;100.00
11448;BME280;43755;49.736;8.734;2023-05-07T09:25:38;97878.09;;;18.65;100.00
11448;BME280;43755;49.736;8.734;2023-05-07T09:27:41;97871.28;;;18.61;100.00
11448;BME280;43755;49.736;8.734;2023-05-07T09:29:43;97878.25;;;18.86;100.00
11448;BME280;43755;49.736;8.734;2023-05-07T09:31:46;97864.50;;;19.23;96.51
11448;BME280;43755;49.736;8.734;2023-05-07T09:33:47;97876.94;;;19.58;95.95
11448;BME280;43755;49.736;8.734;2023-05-07T09:35:50;97874.78;;;19.95;98.54
11448;BME280;43755;49.736;8.734;2023-05-07T09:37:52;97882.69;;;20.39;87.35
11448;BME280;43755;49.736;8.734;2023-05-07T09:39:54;97884.13;;;20.55;76.08
11448;BME280;43755;49.736;8.734;2023-05-07T09:41:55;97885.44;;;20.60;87.66
11448;BME280;43755;49.736;8.734;2023-05-07T09:43:58;97893.59;;;21.00;79.78
11448;BME280;43755;49.736;8.734;2023-05-07T09:46:03;97882.13;;;20.98;77.20
11448;BME280;43755;49.736;8.734;2023-05-07T09:48:06;97879.31;;;21.20;70.35
11448;BME280;43755;49.736;8.734;2023-05-07T09:50:08;97879.97;;;21.43;75.43
11448;BME280;43755;49.736;8.734;2023-05-07T09:52:13;97884.34;;;21.14;74.86
11448;BME280;43755;49.736;8.734;2023-05-07T09:54:15;97885.50;;;20.91;72.28
11448;BME280;43755;49.736;8.734;2023-05-07T09:56:17;97885.28;;;20.41;76.42
11448;BME280;43755;49.736;8.734;2023-05-07T09:58:20;97883.75;;;20.16;77.08
11448;BME280;43755;49.736;8.734;2023-05-07T10:00:23;97882.72;;;19.96;82.04
11448;BME280;43755;49.736;8.734;2023-05-07T10:02:27;97880.28;;;19.93;84.83
11448;BME280;43755;49.736;8.734;2023-05-07T10:04:33;97876.81;;;20.14;80.22
11448;BME280;43755;49.736;8.734;2023-05-07T10:06:36;97876.06;;;20.12;84.27
11448;BME280;43755;49.736;8.734;2023-05-07T10:08:37;97870.47;;;20.67;81.64
11448;BME280;43755;49.736;8.734;2023-05-07T10:10:40;97875.59;;;20.70;73.07
11448;BME280;43755;49.736;8.734;2023-05-07T10:12:41;97863.34;;;21.08;78.66
11448;BME280;43755;49.736;8.734;2023-05-07T10:14:43;97873.88;;;20.90;74.56
11448;BME280;43755;49.736;8.734;2023-05-07T10:16:45;97861.41;;;20.68;77.52
11448;BME280;43755;49.736;8.734;2023-05-07T10:18:49;97870.16;;;20.29;79.34
11448;BME280;43755;49.736;8.734;2023-05-07T10:20:53;97874.09;;;20.25;85.51
11448;BME280;43755;49.736;8.734;2023-05-07T10:22:56;97865.47;;;20.10;82.55
11448;BME280;43755;49.736;8.734;2023-05-07T10:24:59;97865.47;;;20.10;83.00
11448;BME280;43755;49.736;8.734;2023-05-07T10:27:07;97862.00;;;19.87;88.04
11448;BME280;43755;49.736;8.734;2023-05-07T10:29:16;97865.88;;;19.94;83.79
11448;BME280;43755;49.736;8.734;2023-05-07T10:31:32;97872.91;;;19.63;82.40
11448;BME280;43755;49.736;8.734;2023-05-07T10:33:38;97860.50;;;19.51;83.30
11448;BME280;43755;49.736;8.734;2023-05-07T10:35:42;97874.50;;;19.33;82.31
11448;BME280;43755;49.736;8.734;2023-05-07T10:37:46;97880.47;;;19.58;89.71